createdAt,value
2022-12-04T00:00:03.660Z,27.70
2022-12-04T00:02:31.145Z,28.77
2022-12-04T00:04:57.943Z,29.25
2022-12-04T00:07:24.810Z,27.95
2022-12-04T00:09:51.532Z,26.95
2022-12-04T00:12:18.421Z,22.75
2022-12-04T00:15:23.359Z,26.80
2022-12-04T00:17:31.750Z,25.48
2022-12-04T00:19:58.365Z,25.25
2022-12-04T00:22:25.004Z,28.92
2022-12-04T00:24:51.651Z,29.00
2022-12-04T00:27:18.271Z,32.88
2022-12-04T00:29:44.870Z,25.55
2022-12-04T00:34:38.046Z,23.80
2022-12-04T00:37:04.648Z,28.25
2022-12-04T00:39:31.341Z,29.55
2022-12-04T00:41:58.006Z,24.50
2022-12-04T00:44:24.585Z,27.10
2022-12-04T00:49:17.751Z,21.33
2022-12-04T00:51:44.358Z,23.42
2022-12-04T00:54:10.963Z,25.88
2022-12-04T00:56:37.653Z,23.90
2022-12-04T00:59:05.963Z,25.95
2022-12-04T01:01:33.546Z,23.60
2022-12-04T01:04:00.346Z,27.23
2022-12-04T01:06:30.886Z,23.25
2022-12-04T01:08:58.793Z,27.55
2022-12-04T01:11:27.353Z,24.83
2022-12-04T01:13:54.354Z,26.67
2022-12-04T01:16:28.100Z,26.95
2022-12-04T01:18:55.006Z,22.58
2022-12-04T01:21:22.006Z,24.58
2022-12-04T01:23:48.881Z,24.63
2022-12-04T01:26:15.724Z,23.02
2022-12-04T01:28:42.764Z,24.30
2022-12-04T01:31:13.393Z,20.60
2022-12-04T01:33:40.787Z,22.20
2022-12-04T01:36:11.506Z,27.52
2022-12-04T01:38:38.982Z,24.58
2022-12-04T01:41:06.629Z,23.92
2022-12-04T01:43:34.737Z,27.70
2022-12-04T01:46:02.865Z,20.60
2022-12-04T01:48:35.800Z,20.80
2022-12-04T01:53:59.871Z,21.48
2022-12-04T01:56:38.449Z,21.55
2022-12-04T01:59:07.803Z,24.30
2022-12-04T02:01:40.461Z,23.02
2022-12-04T02:04:07.168Z,19.50
2022-12-04T02:06:33.778Z,23.42
2022-12-04T02:09:00.819Z,22.13
2022-12-04T02:11:37.887Z,21.50
2022-12-04T02:14:10.193Z,25.35
2022-12-04T02:17:05.390Z,21.65
2022-12-04T02:19:50.775Z,20.33
2022-12-04T02:22:36.184Z,25.70
2022-12-04T02:25:31.860Z,23.95
2022-12-04T02:28:27.357Z,21.20
2022-12-04T02:30:59.679Z,20.58
2022-12-04T02:33:53.473Z,23.65
2022-12-04T02:36:23.695Z,21.52
2022-12-04T02:39:08.010Z,22.58
2022-12-04T02:41:53.472Z,18.83
2022-12-04T02:45:08.233Z,22.73
2022-12-04T02:47:36.347Z,23.13
2022-12-04T02:50:08.227Z,19.75
2022-12-04T02:52:41.263Z,17.92
2022-12-04T02:55:20.176Z,21.65
2022-12-04T02:57:53.016Z,15.70
2022-12-04T03:02:49.250Z,19.23
2022-12-04T03:05:20.092Z,18.67
2022-12-04T03:07:53.705Z,19.17
2022-12-04T03:10:30.226Z,20.85
2022-12-04T03:13:18.389Z,19.50
2022-12-04T03:15:53.390Z,20.83
2022-12-04T03:18:26.397Z,23.42
2022-12-04T03:20:59.530Z,22.02
2022-12-04T03:23:35.286Z,20.90
2022-12-04T03:26:12.872Z,19.30
2022-12-04T03:29:00.558Z,19.50
2022-12-04T03:32:00.975Z,18.02
2022-12-04T03:34:47.182Z,18.08
2022-12-04T03:37:18.470Z,17.55
2022-12-04T03:40:05.370Z,20.35
2022-12-04T03:43:00.555Z,22.35
2022-12-04T03:45:48.588Z,18.60
2022-12-04T03:48:41.212Z,24.40
2022-12-04T03:51:32.225Z,21.25
2022-12-04T03:54:04.865Z,19.42
2022-12-04T03:56:37.281Z,21.90
2022-12-04T03:59:09.702Z,19.48
2022-12-04T04:01:45.085Z,18.80
2022-12-04T04:04:17.948Z,23.25
2022-12-04T04:06:51.274Z,18.02
2022-12-04T04:09:21.286Z,19.30
2022-12-04T04:11:53.172Z,17.35
2022-12-04T04:14:49.529Z,22.17
2022-12-04T04:17:39.044Z,19.92
2022-12-04T04:20:33.482Z,21.90
2022-12-04T04:23:20.950Z,20.25
2022-12-04T04:25:48.009Z,22.88
2022-12-04T04:28:33.450Z,20.45
2022-12-04T04:31:06.379Z,20.60
2022-12-04T04:33:36.342Z,17.70
2022-12-04T04:36:21.614Z,18.33
2022-12-04T04:38:56.984Z,20.83
2022-12-04T04:41:32.913Z,17.70
2022-12-04T04:44:41.982Z,22.52
2022-12-04T04:47:16.341Z,19.13
2022-12-04T04:49:46.344Z,21.60
2022-12-04T04:52:13.101Z,21.73
2022-12-04T04:54:40.463Z,19.23
2022-12-04T04:57:07.110Z,21.23
2022-12-04T04:59:34.532Z,23.00
2022-12-04T05:02:01.360Z,20.17
2022-12-04T05:04:28.066Z,20.17
2022-12-04T05:06:54.717Z,17.08
2022-12-04T05:09:21.438Z,18.95
2022-12-04T05:11:48.094Z,21.65
2022-12-04T05:14:14.680Z,19.33
2022-12-04T05:16:41.803Z,18.92
2022-12-04T05:19:27.302Z,17.08
2022-12-04T05:21:53.985Z,17.80
2022-12-04T05:24:20.542Z,19.73
2022-12-04T05:26:47.181Z,18.13
2022-12-04T05:29:13.853Z,19.20
2022-12-04T05:31:40.555Z,18.77
2022-12-04T05:34:07.221Z,20.00
2022-12-04T05:36:33.805Z,17.33
2022-12-04T05:41:26.916Z,16.52
2022-12-04T05:43:53.561Z,20.92
2022-12-04T05:46:20.789Z,16.55
2022-12-04T05:48:47.467Z,17.33
2022-12-04T05:51:14.224Z,20.15
2022-12-04T05:53:41.044Z,20.40
2022-12-04T05:56:08.334Z,21.95
2022-12-04T05:58:38.783Z,20.00
2022-12-04T06:01:17.510Z,19.63
2022-12-04T06:03:44.657Z,21.65
2022-12-04T06:06:21.495Z,20.23
2022-12-04T06:08:48.811Z,23.02
2022-12-04T06:11:22.021Z,22.08
2022-12-04T06:13:48.879Z,26.70
2022-12-04T06:16:21.299Z,21.42
2022-12-04T06:18:53.017Z,29.02
2022-12-04T06:21:21.192Z,20.70
2022-12-04T06:23:47.802Z,17.48
2022-12-04T06:26:15.266Z,21.65
2022-12-04T06:28:41.916Z,21.15
2022-12-04T06:31:10.694Z,24.85
2022-12-04T06:33:37.513Z,20.52
2022-12-04T06:36:06.761Z,21.17
2022-12-04T06:38:34.062Z,19.15
2022-12-04T06:41:07.541Z,20.55
2022-12-04T06:43:34.682Z,20.38
2022-12-04T06:46:10.409Z,23.40
2022-12-04T06:48:37.555Z,23.08
2022-12-04T06:51:05.746Z,19.05
2022-12-04T06:53:33.393Z,19.42
2022-12-04T06:56:02.114Z,20.90
2022-12-04T06:58:29.309Z,19.05
2022-12-04T07:00:57.003Z,18.08
2022-12-04T07:03:24.878Z,24.77
2022-12-04T07:05:51.836Z,18.17
2022-12-04T07:08:18.823Z,22.65
2022-12-04T07:10:45.805Z,24.63
2022-12-04T07:13:12.413Z,23.35
2022-12-04T07:15:39.072Z,25.83
2022-12-04T07:18:05.707Z,21.40
2022-12-04T07:20:32.464Z,21.42
2022-12-04T07:23:02.633Z,22.13
2022-12-04T07:25:33.600Z,23.73
2022-12-04T07:28:00.282Z,18.85
2022-12-04T07:30:26.880Z,23.20
2022-12-04T07:32:53.531Z,21.00
2022-12-04T07:35:20.160Z,23.52
2022-12-04T07:37:46.740Z,20.50
2022-12-04T07:40:13.832Z,22.10
2022-12-04T07:42:40.433Z,21.90
2022-12-04T07:45:08.562Z,20.42
2022-12-04T07:47:36.557Z,24.58
2022-12-04T07:50:04.577Z,23.10
2022-12-04T07:52:35.085Z,18.50
2022-12-04T07:55:01.715Z,23.75
2022-12-04T07:57:28.443Z,20.23
2022-12-04T07:59:55.797Z,21.73
2022-12-04T08:02:22.962Z,21.75
2022-12-04T08:04:49.642Z,18.85
2022-12-04T08:07:16.667Z,23.25
2022-12-04T08:09:43.599Z,19.85
2022-12-04T08:12:11.494Z,18.40
2022-12-04T08:14:38.097Z,18.20
2022-12-04T08:17:08.110Z,23.75
2022-12-04T08:19:34.786Z,21.83
2022-12-04T08:22:01.409Z,23.42
2022-12-04T08:24:28.053Z,19.45
2022-12-04T08:26:55.438Z,17.58
2022-12-04T08:29:22.996Z,19.52
2022-12-04T08:31:49.914Z,22.33
2022-12-04T08:34:17.197Z,21.55
2022-12-04T08:36:44.042Z,19.50
2022-12-04T08:39:13.718Z,24.40
2022-12-04T08:41:40.440Z,22.15
2022-12-04T08:44:07.491Z,21.13
2022-12-04T08:46:34.326Z,23.10
2022-12-04T08:49:01.496Z,21.55
2022-12-04T08:51:31.509Z,22.73
2022-12-04T08:54:01.368Z,23.40
2022-12-04T08:56:30.051Z,25.58
2022-12-04T08:58:57.539Z,19.83
2022-12-04T09:01:25.803Z,22.92
2022-12-04T09:03:52.946Z,22.02
2022-12-04T09:06:20.773Z,25.15
2022-12-04T09:08:48.203Z,19.80
2022-12-04T09:11:18.021Z,25.70
2022-12-04T09:13:45.430Z,20.60
2022-12-04T09:16:15.540Z,28.00
2022-12-04T09:18:42.753Z,22.83
2022-12-04T09:21:11.926Z,20.30
2022-12-04T09:23:39.268Z,25.70
2022-12-04T09:26:15.918Z,22.35
2022-12-04T09:28:42.633Z,27.15
2022-12-04T09:31:09.595Z,22.75
2022-12-04T09:33:36.192Z,23.98
2022-12-04T09:36:04.105Z,23.13
2022-12-04T09:38:31.771Z,24.10
2022-12-04T09:41:24.696Z,19.27
2022-12-04T09:43:59.835Z,21.95
2022-12-04T09:46:35.687Z,26.48
2022-12-04T09:49:27.468Z,24.05
2022-12-04T09:51:58.261Z,24.35
2022-12-04T09:54:29.707Z,22.75
2022-12-04T09:57:03.173Z,26.17
2022-12-04T09:59:32.312Z,23.55
2022-12-04T10:02:10.479Z,21.75
2022-12-04T10:04:40.883Z,27.27
2022-12-04T10:07:26.476Z,25.67
2022-12-04T10:10:15.598Z,24.83
2022-12-04T10:13:03.903Z,22.65
2022-12-04T10:15:55.956Z,31.83
2022-12-04T10:18:31.405Z,26.58
2022-12-04T10:21:22.756Z,23.90
2022-12-04T10:24:03.965Z,25.52
2022-12-04T10:26:36.465Z,26.25
2022-12-04T10:29:08.343Z,25.92
2022-12-04T10:31:37.523Z,31.35
2022-12-04T10:34:16.188Z,25.95
2022-12-04T10:36:47.862Z,26.35
2022-12-04T10:39:26.625Z,24.95
2022-12-04T10:41:58.520Z,24.73
2022-12-04T10:44:25.713Z,23.70
2022-12-04T10:46:57.389Z,25.35
2022-12-04T10:49:27.690Z,19.08
2022-12-04T10:51:55.041Z,24.73
2022-12-04T10:54:45.639Z,25.67
2022-12-04T10:57:13.914Z,23.05
2022-12-04T10:59:49.575Z,25.73
2022-12-04T11:02:21.573Z,25.50
2022-12-04T11:04:58.454Z,23.48
2022-12-04T11:07:37.060Z,23.10
2022-12-04T11:10:22.851Z,25.25
2022-12-04T11:12:57.806Z,27.60
2022-12-04T11:15:25.696Z,26.48
2022-12-04T11:17:53.121Z,27.80
2022-12-04T11:20:23.443Z,23.92
2022-12-04T11:22:57.015Z,25.75
2022-12-04T11:25:27.305Z,25.38
2022-12-04T11:28:01.096Z,28.02
2022-12-04T11:30:30.982Z,26.88
2022-12-04T11:32:58.292Z,29.90
2022-12-04T11:35:27.278Z,29.08
2022-12-04T11:38:15.935Z,26.15
2022-12-04T11:40:52.605Z,29.17
2022-12-04T11:43:20.689Z,26.20
2022-12-04T11:46:21.270Z,28.90
2022-12-04T11:48:47.951Z,25.45
2022-12-04T11:51:45.919Z,23.00
2022-12-04T11:56:43.733Z,23.38
2022-12-04T11:59:36.596Z,25.95
2022-12-04T12:02:51.785Z,23.40
2022-12-04T12:05:45.997Z,26.83
2022-12-04T12:08:32.711Z,23.42
2022-12-04T12:11:32.208Z,24.75
2022-12-04T12:14:23.202Z,25.70
2022-12-04T12:17:07.555Z,29.95
2022-12-04T12:20:14.817Z,26.83
2022-12-04T12:22:44.592Z,24.88
2022-12-04T12:25:29.263Z,27.60
2022-12-04T12:28:02.379Z,27.42
2022-12-04T12:30:43.551Z,27.70
2022-12-04T12:33:30.843Z,28.58
2022-12-04T12:36:09.805Z,20.33
2022-12-04T12:38:42.314Z,26.73
2022-12-04T12:41:16.691Z,22.20
2022-12-04T12:43:51.108Z,27.15
2022-12-04T12:46:37.688Z,24.90
2022-12-04T12:49:12.277Z,25.08
2022-12-04T12:51:45.643Z,28.08
2022-12-04T12:54:32.528Z,26.08
2022-12-04T12:57:23.854Z,29.83
2022-12-04T13:00:00.173Z,30.73
2022-12-04T13:02:45.076Z,30.02
2022-12-04T13:05:14.490Z,29.27
2022-12-04T13:07:44.456Z,26.95
2022-12-04T13:10:19.029Z,28.88
2022-12-04T13:13:02.617Z,25.17
2022-12-04T13:15:45.647Z,25.85
2022-12-04T13:18:27.472Z,27.65
2022-12-04T13:21:00.974Z,24.70
2022-12-04T13:24:11.846Z,30.10
2022-12-04T13:27:09.043Z,27.13
2022-12-04T13:29:38.857Z,25.30
2022-12-04T13:32:42.234Z,27.75
2022-12-04T13:35:37.324Z,25.67
2022-12-04T13:38:21.972Z,23.33
2022-12-04T13:40:58.724Z,24.63
2022-12-04T13:43:33.572Z,27.27
2022-12-04T13:46:05.199Z,25.10
2022-12-04T13:48:43.279Z,30.45
2022-12-04T13:51:50.150Z,26.42
2022-12-04T13:54:16.716Z,28.17
2022-12-04T13:56:46.508Z,26.63
2022-12-04T13:59:28.511Z,28.60
2022-12-04T14:02:02.219Z,23.20
2022-12-04T14:04:52.070Z,26.30
2022-12-04T14:07:53.670Z,27.35
2022-12-04T14:10:20.244Z,28.55
2022-12-04T14:13:02.013Z,24.90
2022-12-04T14:15:34.933Z,28.95
2022-12-04T14:18:06.501Z,23.95
2022-12-04T14:20:34.714Z,26.23
2022-12-04T14:23:15.118Z,24.60
2022-12-04T14:25:42.154Z,26.00
2022-12-04T14:28:42.696Z,28.27
2022-12-04T14:31:20.168Z,26.00
2022-12-04T14:34:02.775Z,24.63
2022-12-04T14:36:35.955Z,24.17
2022-12-04T14:39:20.950Z,30.08
2022-12-04T14:41:47.673Z,25.10
2022-12-04T14:44:28.972Z,24.00
2022-12-04T14:47:02.644Z,25.38
2022-12-04T14:49:51.899Z,26.95
2022-12-04T14:52:27.146Z,27.58
2022-12-04T14:55:08.183Z,25.58
2022-12-04T14:57:55.303Z,23.20
2022-12-04T15:00:24.400Z,30.67
2022-12-04T15:03:02.222Z,28.00
2022-12-04T15:05:31.646Z,23.45
2022-12-04T15:08:04.776Z,27.95
2022-12-04T15:10:53.775Z,26.38
2022-12-04T15:13:35.169Z,26.70
2022-12-04T15:16:18.919Z,30.27
2022-12-04T15:18:57.989Z,22.95
2022-12-04T15:21:38.642Z,26.05
2022-12-04T15:24:24.672Z,26.42
2022-12-04T15:26:54.531Z,27.27
2022-12-04T15:29:30.059Z,26.17
2022-12-04T15:32:03.093Z,27.95
2022-12-04T15:34:43.003Z,29.23
2022-12-04T15:37:19.846Z,30.83
2022-12-04T15:39:47.758Z,23.85
2022-12-04T15:42:24.251Z,30.88
2022-12-04T15:45:01.097Z,25.05
2022-12-04T15:47:33.266Z,28.25
2022-12-04T15:50:15.286Z,30.55
2022-12-04T15:53:02.726Z,29.45
2022-12-04T15:55:51.193Z,29.25
2022-12-04T15:58:37.748Z,28.25
2022-12-04T16:01:10.371Z,29.65
2022-12-04T16:03:43.297Z,23.27
2022-12-04T16:06:28.331Z,26.85
2022-12-04T16:09:17.554Z,24.80
2022-12-04T16:11:44.283Z,23.38
2022-12-04T16:14:18.574Z,28.27
2022-12-04T16:16:48.360Z,26.98
2022-12-04T16:19:21.383Z,28.77
2022-12-04T16:21:48.241Z,29.33
2022-12-04T16:24:14.940Z,28.42
2022-12-04T16:26:41.892Z,27.55
2022-12-04T16:29:09.367Z,27.30
2022-12-04T16:31:38.045Z,28.88
2022-12-04T16:34:07.955Z,28.58
2022-12-04T16:36:34.557Z,27.27
2022-12-04T16:39:01.863Z,32.70
2022-12-04T16:41:28.895Z,32.83
2022-12-04T16:43:58.143Z,38.15
2022-12-04T16:46:27.802Z,34.20
2022-12-04T16:48:55.710Z,32.13
2022-12-04T16:51:25.792Z,35.58
2022-12-04T16:53:53.661Z,30.45
2022-12-04T16:56:21.456Z,33.85
2022-12-04T16:58:48.599Z,63.35
2022-12-04T17:01:25.333Z,44.53
2022-12-04T17:03:52.676Z,30.02
2022-12-04T17:06:19.916Z,28.98
2022-12-04T17:08:46.649Z,24.35
2022-12-04T17:11:14.770Z,22.05
2022-12-04T17:13:42.191Z,25.00
2022-12-04T17:16:12.022Z,29.63
2022-12-04T17:18:42.301Z,24.20
2022-12-04T17:21:11.414Z,25.92
2022-12-04T17:23:38.489Z,21.77
2022-12-04T17:26:08.326Z,23.30
2022-12-04T17:28:36.468Z,27.23
2022-12-04T17:31:06.222Z,29.02
2022-12-04T17:33:33.527Z,27.13
2022-12-04T17:36:00.296Z,24.40
2022-12-04T17:38:28.289Z,25.98
2022-12-04T17:41:02.603Z,29.77
2022-12-04T17:43:30.990Z,24.40
2022-12-04T17:45:58.727Z,27.70
2022-12-04T17:48:26.070Z,24.65
2022-12-04T17:51:13.881Z,26.55
2022-12-04T17:53:41.572Z,24.42
2022-12-04T17:56:13.958Z,25.23
2022-12-04T17:58:40.751Z,24.95
2022-12-04T18:01:10.895Z,23.77
2022-12-04T18:03:38.676Z,26.63
2022-12-04T18:06:23.257Z,23.00
2022-12-04T18:08:50.749Z,24.17
2022-12-04T18:11:21.008Z,23.80
2022-12-04T18:13:57.088Z,22.88
2022-12-04T18:16:25.142Z,20.55
2022-12-04T18:18:59.395Z,25.20
2022-12-04T18:21:26.566Z,27.15
2022-12-04T18:23:57.544Z,46.95
2022-12-04T18:26:27.033Z,62.83
2022-12-04T18:28:57.734Z,32.60
2022-12-04T18:31:25.617Z,26.08
2022-12-04T18:33:52.596Z,27.13
2022-12-04T18:36:22.331Z,27.90
2022-12-04T18:38:55.528Z,27.02
2022-12-04T18:41:22.245Z,24.85
2022-12-04T18:43:49.409Z,24.42
2022-12-04T18:46:17.173Z,26.45
2022-12-04T18:48:45.292Z,25.63
2022-12-04T18:51:27.108Z,23.90
2022-12-04T18:53:56.210Z,26.35
2022-12-04T18:56:23.152Z,26.13
2022-12-04T18:58:50.023Z,25.73
2022-12-04T19:01:19.036Z,24.50
2022-12-04T19:03:47.108Z,27.55
2022-12-04T19:06:14.512Z,26.38
2022-12-04T19:08:43.493Z,24.67
2022-12-04T19:11:13.539Z,26.08
2022-12-04T19:13:40.742Z,27.13
2022-12-04T19:16:12.249Z,26.65
2022-12-04T19:18:38.966Z,24.85
2022-12-04T19:21:06.979Z,27.20
2022-12-04T19:23:33.738Z,24.65
2022-12-04T19:26:01.347Z,20.65
2022-12-04T19:28:28.886Z,27.67
2022-12-04T19:30:56.277Z,23.80
2022-12-04T19:33:25.520Z,23.27
2022-12-04T19:36:09.078Z,22.27
2022-12-04T19:38:35.706Z,21.95
2022-12-04T19:41:09.243Z,21.88
2022-12-04T19:43:41.888Z,22.95
2022-12-04T19:46:11.018Z,20.08
2022-12-04T19:48:38.860Z,23.17
2022-12-04T19:51:11.527Z,21.65
2022-12-04T19:53:41.061Z,25.77
2022-12-04T19:56:17.073Z,21.10
2022-12-04T19:58:44.538Z,20.40
2022-12-04T20:01:15.020Z,21.95
2022-12-04T20:03:42.236Z,27.20
2022-12-04T20:06:12.786Z,20.02
2022-12-04T20:08:40.325Z,22.15
2022-12-04T20:11:20.211Z,20.80
2022-12-04T20:13:49.798Z,23.33
2022-12-04T20:16:19.434Z,20.88
2022-12-04T20:18:46.959Z,20.73
2022-12-04T20:21:14.660Z,22.45
2022-12-04T20:23:50.473Z,21.85
2022-12-04T20:26:19.635Z,23.95
2022-12-04T20:28:46.321Z,23.27
2022-12-04T20:31:15.930Z,20.50
2022-12-04T20:33:43.684Z,19.80
2022-12-04T20:36:10.980Z,18.25
2022-12-04T20:38:38.158Z,23.15
2022-12-04T20:41:06.487Z,23.05
2022-12-04T20:43:33.799Z,20.85
2022-12-04T20:46:00.724Z,19.33
2022-12-04T20:48:27.961Z,22.42
2022-12-04T20:50:54.608Z,22.50
2022-12-04T20:53:21.271Z,20.08
2022-12-04T20:55:55.305Z,20.63
2022-12-04T20:58:23.071Z,21.00
2022-12-04T21:00:49.690Z,17.67
2022-12-04T21:03:16.340Z,23.92
2022-12-04T21:05:49.626Z,19.90
2022-12-04T21:08:36.247Z,18.67
2022-12-04T21:11:02.974Z,15.57
2022-12-04T21:13:48.156Z,19.42
2022-12-04T21:16:15.074Z,18.05
2022-12-04T21:18:41.715Z,23.48
2022-12-04T21:21:08.392Z,18.02
2022-12-04T21:23:35.964Z,19.13
2022-12-04T21:26:02.881Z,20.85
2022-12-04T21:28:31.207Z,20.33
2022-12-04T21:31:06.045Z,21.05
2022-12-04T21:33:34.102Z,17.95
2022-12-04T21:36:06.650Z,18.25
2022-12-04T21:38:38.130Z,18.60
2022-12-04T21:41:07.066Z,22.00
2022-12-04T21:43:34.795Z,18.63
2022-12-04T21:46:09.037Z,21.88
2022-12-04T21:48:36.359Z,20.20
2022-12-04T21:51:21.217Z,18.88
2022-12-04T21:53:55.126Z,21.05
2022-12-04T21:56:22.613Z,20.40
2022-12-04T21:58:49.590Z,18.08
2022-12-04T22:01:17.909Z,21.80
2022-12-04T22:03:44.702Z,18.65
2022-12-04T22:06:11.854Z,17.85
2022-12-04T22:08:40.687Z,19.77
2022-12-04T22:11:09.458Z,21.85
2022-12-04T22:13:37.029Z,17.77
2022-12-04T22:16:10.917Z,17.83
2022-12-04T22:18:37.728Z,20.95
2022-12-04T22:21:06.640Z,19.67
2022-12-04T22:23:33.405Z,17.70
2022-12-04T22:26:12.716Z,18.77
2022-12-04T22:28:39.451Z,18.20
2022-12-04T22:31:10.725Z,19.88
2022-12-04T22:33:38.262Z,19.15
2022-12-04T22:36:10.809Z,19.67
2022-12-04T22:38:58.672Z,18.00
2022-12-04T22:41:25.693Z,19.20
2022-12-04T22:43:52.529Z,19.48
2022-12-04T22:46:19.348Z,17.70
2022-12-04T22:48:46.180Z,18.13
2022-12-04T22:51:15.848Z,18.55
2022-12-04T22:53:54.376Z,20.48
2022-12-04T22:56:26.719Z,15.68
2022-12-04T22:58:54.228Z,18.58
2022-12-04T23:01:23.529Z,19.63
2022-12-04T23:03:50.920Z,19.98
2022-12-04T23:06:19.723Z,17.65
2022-12-04T23:08:46.775Z,18.50
2022-12-04T23:11:20.050Z,19.27
2022-12-04T23:13:51.787Z,21.02
2022-12-04T23:16:20.570Z,15.27
2022-12-04T23:18:48.270Z,20.10
2022-12-04T23:21:16.585Z,15.85
2022-12-04T23:23:45.191Z,17.33
2022-12-04T23:26:14.937Z,20.80
2022-12-04T23:28:42.412Z,15.40
2022-12-04T23:31:10.804Z,17.65
2022-12-04T23:33:38.369Z,17.55
2022-12-04T23:36:06.107Z,17.73
2022-12-04T23:38:34.900Z,19.08
2022-12-04T23:41:05.943Z,17.20
2022-12-04T23:43:33.865Z,17.70
2022-12-04T23:46:04.486Z,15.50
2022-12-04T23:48:34.063Z,18.73
2022-12-04T23:51:00.711Z,18.00
2022-12-04T23:53:27.549Z,18.85
2022-12-04T23:56:06.632Z,16.77
